Time;durP1;ratioP1;P1;durP2;ratioP2;P2;SDS_P1;SDS_P2;PMS_P1;PMS_P2;Temp;Humidity;BMP_temperature;BMP_pressure;BME280_temperature;BME280_humidity;BME280_pressure;Samples;Min_cycle;Max_cycle;Signal;HPM_P1;HPM_P2
2023/12/21 00:00:45;;;;;;;;;;;;;;;19.74;46.64;99516.06;2099394;28;6261;-63
2023/12/21 00:01:47;;;;;;;;;;;;;;;19.75;46.55;99508.19;2097179;28;1808;-63
2023/12/21 00:02:48;;;;;;;;;;;;;;;19.74;46.50;99503.84;2101286;28;1879;-63
2023/12/21 00:03:50;;;;;;;;;;;;;;;19.73;46.64;99491.63;2100900;28;1482;-63
2023/12/21 00:04:51;;;;;;;;;;;;;;;19.74;46.64;99486.59;2098434;28;1938;-63
2023/12/21 00:05:53;;;;;;;;;;;;;;;19.74;46.47;99492.34;2096982;28;1946;-63
2023/12/21 00:06:54;;;;;;;;;;;;;;;19.73;46.55;99490.91;2097985;28;1787;-63
2023/12/21 00:07:56;;;;;;;;;;;;;;;19.73;46.53;99490.91;2096635;28;1827;-63
2023/12/21 00:08:57;;;;;;;;;;;;;;;19.72;46.66;99483.66;2096354;28;1467;-63
2023/12/21 00:09:59;;;;;;;;;;;;;;;19.72;46.64;99477.94;2098618;28;1804;-63
2023/12/21 00:11:00;;;;;;;;;;;;;;;19.72;46.51;99489.41;2097885;28;1502;-63
2023/12/21 00:12:02;;;;;;;;;;;;;;;19.72;46.63;99483.66;2096549;28;1529;-63
2023/12/21 00:13:04;;;;;;;;;;;;;;;19.72;46.46;99480.81;2098275;28;1574;-63
2023/12/21 00:14:05;;;;;;;;;;;;;;;19.70;46.63;99483.63;2098026;28;2013;-63
2023/12/21 00:15:07;;;;;;;;;;;;;;;19.70;46.67;99475.75;2097527;28;1986;-63
2023/12/21 00:16:08;;;;;;;;;;;;;;;19.71;46.56;99470.72;2099690;28;1946;-63
2023/12/21 00:17:10;;;;;;;;;;;;;;;19.69;46.62;99464.94;2100410;28;1970;-63
2023/12/21 00:18:11;;;;;;;;;;;;;;;19.70;46.47;99454.91;2099674;28;1660;-63
2023/12/21 00:19:13;;;;;;;;;;;;;;;19.67;46.41;99446.19;2101407;28;1614;-63
2023/12/21 00:20:16;;;;;;;;;;;;;;;19.69;46.49;99444.84;2099615;28;1754;-63
2023/12/21 00:21:17;;;;;;;;;;;;;;;19.67;46.57;99428.97;2098455;28;1919;-63
2023/12/21 00:22:19;;;;;;;;;;;;;;;19.69;46.54;99427.59;2098055;28;1935;-63
2023/12/21 00:23:20;;;;;;;;;;;;;;;19.67;46.45;99423.22;2099457;28;2135;-63
2023/12/21 00:24:22;;;;;;;;;;;;;;;19.67;46.47;99431.84;2098631;28;1911;-63
2023/12/21 00:25:23;;;;;;;;;;;;;;;19.68;46.47;99441.22;2098819;28;2125;-63
2023/12/21 00:26:25;;;;;;;;;;;;;;;19.67;46.60;99437.59;2098256;28;1863;-63
2023/12/21 00:27:26;;;;;;;;;;;;;;;19.67;46.50;99446.19;2098202;28;2100;-63
2023/12/21 00:28:27;;;;;;;;;;;;;;;19.66;46.54;99436.13;2099940;28;2240;-63
2023/12/21 00:29:30;;;;;;;;;;;;;;;19.66;46.50;99433.25;2101753;28;1653;-63
2023/12/21 00:30:31;;;;;;;;;;;;;;;19.66;46.41;99426.78;2099514;28;6251;-63
2023/12/21 00:31:33;;;;;;;;;;;;;;;19.65;46.45;99413.84;2097859;28;1958;-63
2023/12/21 00:32:34;;;;;;;;;;;;;;;19.65;46.62;99410.97;2098904;28;2177;-63
2023/12/21 00:33:37;;;;;;;;;;;;;;;19.65;46.54;99405.97;2101279;28;2089;-63
2023/12/21 00:34:38;;;;;;;;;;;;;;;19.65;46.44;99394.47;2099400;28;1987;-63
2023/12/21 00:35:40;;;;;;;;;;;;;;;19.64;46.54;99409.50;2098344;28;1862;-63
2023/12/21 00:36:42;;;;;;;;;;;;;;;19.64;46.39;99410.22;2103163;28;1569;-63
2023/12/21 00:37:44;;;;;;;;;;;;;;;19.65;46.44;99394.47;2099003;28;2048;-63
2023/12/21 00:38:46;;;;;;;;;;;;;;;19.63;46.52;99391.56;2100048;28;1829;-63
2023/12/21 00:39:47;;;;;;;;;;;;;;;19.64;46.54;99384.38;2100347;28;1760;-63
2023/12/21 00:40:49;;;;;;;;;;;;;;;19.64;46.44;99384.38;2100712;28;1690;-63
2023/12/21 00:41:50;;;;;;;;;;;;;;;19.66;46.56;99398.06;2099353;28;1760;-63
2023/12/21 00:42:52;;;;;;;;;;;;;;;19.64;46.55;99393.00;2097881;28;1642;-63
2023/12/21 00:43:53;;;;;;;;;;;;;;;19.64;46.42;99393.00;2098368;28;1959;-63
2023/12/21 00:44:54;;;;;;;;;;;;;;;19.63;46.48;99382.19;2100086;28;2061;-63
2023/12/21 00:45:56;;;;;;;;;;;;;;;19.63;46.43;99385.81;2096573;28;1911;-63
2023/12/21 00:46:57;;;;;;;;;;;;;;;19.63;46.63;99380.06;2097272;28;2081;-63
2023/12/21 00:47:59;;;;;;;;;;;;;;;19.64;46.54;99390.13;2097510;28;1943;-63
2023/12/21 00:49:00;;;;;;;;;;;;;;;19.63;46.42;99385.81;2102545;28;1550;-63
2023/12/21 00:50:02;;;;;;;;;;;;;;;19.62;46.63;99387.22;2100612;28;1581;-63
2023/12/21 00:51:04;;;;;;;;;;;;;;;19.64;46.54;99392.28;2100110;28;1741;-63
2023/12/21 00:52:05;;;;;;;;;;;;;;;19.63;46.46;99382.94;2103656;28;2165;-63
2023/12/21 00:53:06;;;;;;;;;;;;;;;19.63;46.46;99388.69;2101734;28;2295;-64
2023/12/21 00:54:08;;;;;;;;;;;;;;;19.62;46.51;99372.84;2102289;28;1716;-64
2023/12/21 00:55:09;;;;;;;;;;;;;;;19.62;46.49;99358.50;2100032;28;1955;-63
2023/12/21 00:56:11;;;;;;;;;;;;;;;19.62;46.37;99367.09;2099517;28;1954;-64
2023/12/21 00:57:12;;;;;;;;;;;;;;;19.62;46.50;99358.50;2098861;28;2108;-64
2023/12/21 00:58:14;;;;;;;;;;;;;;;19.63;46.52;99362.09;2099253;28;2049;-64
2023/12/21 00:59:15;;;;;;;;;;;;;;;19.61;46.52;99359.19;2098103;28;1879;-63
2023/12/21 01:00:17;;;;;;;;;;;;;;;19.60;46.48;99346.94;2099637;28;6271;-63
2023/12/21 01:01:18;;;;;;;;;;;;;;;19.59;46.59;99350.53;2097346;28;2037;-64
2023/12/21 01:02:20;;;;;;;;;;;;;;;19.59;46.54;99359.88;2100432;28;1886;-63
2023/12/21 01:03:21;;;;;;;;;;;;;;;19.61;46.51;99367.81;2102259;28;1829;-63
2023/12/21 01:04:25;;;;;;;;;;;;;;;19.60;46.54;99375.66;2102386;28;1848;-63
2023/12/21 01:05:27;;;;;;;;;;;;;;;19.60;46.39;99352.69;2101424;28;1625;-64
2023/12/21 01:06:28;;;;;;;;;;;;;;;19.59;46.34;99362.00;2098521;28;1764;-64
2023/12/21 01:07:30;;;;;;;;;;;;;;;19.58;46.38;99349.78;2103118;28;1451;-63
2023/12/21 01:08:31;;;;;;;;;;;;;;;19.57;46.55;99333.97;2101750;28;1969;-63
2023/12/21 01:09:33;;;;;;;;;;;;;;;19.58;46.51;99334.69;2101157;28;1531;-63
2023/12/21 01:10:38;;;;;;;;;;;;;;;19.58;46.56;99331.81;2101518;28;1579;-64
2023/12/21 01:11:39;;;;;;;;;;;;;;;19.57;46.57;99348.31;2097953;28;1981;-64
2023/12/21 01:12:41;;;;;;;;;;;;;;;19.58;46.48;99349.78;2098986;28;1942;-63
2023/12/21 01:13:42;;;;;;;;;;;;;;;19.58;46.41;99346.19;2098773;28;1569;-63
2023/12/21 01:14:43;;;;;;;;;;;;;;;19.57;46.51;99342.56;2100068;28;1968;-64
2023/12/21 01:15:45;;;;;;;;;;;;;;;19.57;46.51;99336.13;2104086;28;1718;-63
2023/12/21 01:16:46;;;;;;;;;;;;;;;19.56;46.45;99329.66;2103587;28;1523;-64
2023/12/21 01:17:48;;;;;;;;;;;;;;;19.57;46.44;99313.16;2102497;28;1792;-63
2023/12/21 01:18:49;;;;;;;;;;;;;;;19.57;46.27;99318.88;2101070;28;1560;-63
2023/12/21 01:19:51;;;;;;;;;;;;;;;19.56;46.31;99317.41;2101006;28;1663;-63
2023/12/21 01:20:52;;;;;;;;;;;;;;;19.57;46.31;99333.25;2103435;28;1629;-63
2023/12/21 01:21:54;;;;;;;;;;;;;;;19.58;46.28;99331.81;2098698;28;1964;-64
2023/12/21 01:22:55;;;;;;;;;;;;;;;19.58;46.33;99326.81;2098149;28;1984;-64
2023/12/21 01:23:57;;;;;;;;;;;;;;;19.59;46.41;99321.81;2098874;28;1680;-64
2023/12/21 01:24:58;;;;;;;;;;;;;;;19.59;46.36;99296.69;2098951;28;2086;-64
2023/12/21 01:26:00;;;;;;;;;;;;;;;19.60;46.21;99323.97;2101462;28;1883;-63
2023/12/21 01:27:01;;;;;;;;;;;;;;;19.60;46.33;99338.34;2098964;28;1558;-64
2023/12/21 01:28:03;;;;;;;;;;;;;;;19.62;46.24;99337.66;2098587;28;2002;-62
2023/12/21 01:29:04;;;;;;;;;;;;;;;19.62;46.33;99344.13;2101663;28;1510;-62
2023/12/21 01:30:06;;;;;;;;;;;;;;;19.62;46.37;99326.91;2103266;28;6005;-62
2023/12/21 01:31:08;;;;;;;;;;;;;;;19.64;46.49;99323.38;2099510;28;2025;-71
2023/12/21 01:32:09;;;;;;;;;;;;;;;19.64;46.37;99331.97;2102427;28;2188;-62
2023/12/21 01:33:11;;;;;;;;;;;;;;;19.64;46.50;99329.09;2100082;28;2007;-62
2023/12/21 01:34:12;;;;;;;;;;;;;;;19.65;46.41;99337.06;2101153;28;1788;-62
2023/12/21 01:35:14;;;;;;;;;;;;;;;19.65;46.32;99342.78;2101069;28;1906;-62
2023/12/21 01:36:16;;;;;;;;;;;;;;;19.65;46.46;99347.78;2099017;28;1949;-62
2023/12/21 01:37:17;;;;;;;;;;;;;;;19.66;46.41;99337.78;2100056;28;1843;-62
2023/12/21 01:38:19;;;;;;;;;;;;;;;19.65;46.46;99328.44;2101656;28;1922;-62
2023/12/21 01:39:20;;;;;;;;;;;;;;;19.66;46.46;99332.03;2099973;28;1615;-62
2023/12/21 01:40:23;;;;;;;;;;;;;;;19.65;46.39;99331.31;2099602;28;1574;-62
2023/12/21 01:41:24;;;;;;;;;;;;;;;19.65;46.50;99327.69;2098792;28;1756;-62
2023/12/21 01:42:25;;;;;;;;;;;;;;;19.64;46.42;99326.97;2098220;28;2057;-62
2023/12/21 01:43:27;;;;;;;;;;;;;;;19.66;46.46;99324.16;2103838;28;1681;-62
2023/12/21 01:44:28;;;;;;;;;;;;;;;19.65;46.43;99322.69;2100411;28;1587;-62
2023/12/21 01:45:32;;;;;;;;;;;;;;;19.65;46.57;99316.94;2100502;28;1570;-62
2023/12/21 01:46:33;;;;;;;;;;;;;;;19.66;46.52;99314.81;2101220;28;1436;-62
2023/12/21 01:47:35;;;;;;;;;;;;;;;19.65;46.59;99319.81;2102177;28;1963;-62
2023/12/21 01:48:36;;;;;;;;;;;;;;;19.65;46.58;99325.56;2102213;28;1934;-62
2023/12/21 01:49:38;;;;;;;;;;;;;;;19.65;46.56;99319.81;2100971;28;1540;-62
2023/12/21 01:50:40;;;;;;;;;;;;;;;19.65;46.56;99310.47;2100503;28;1597;-62
2023/12/21 01:51:44;;;;;;;;;;;;;;;19.65;46.60;99311.22;2100228;28;1950;-62
2023/12/21 01:52:45;;;;;;;;;;;;;;;19.66;46.65;99309.06;2102386;28;2048;-62
2023/12/21 01:53:48;;;;;;;;;;;;;;;19.64;46.71;99309.72;2100217;28;1594;-62
2023/12/21 01:54:49;;;;;;;;;;;;;;;19.64;46.62;99297.53;2101636;28;1914;-62
2023/12/21 01:55:50;;;;;;;;;;;;;;;19.65;46.71;99296.84;2098148;28;1492;-62
2023/12/21 01:56:52;;;;;;;;;;;;;;;19.64;46.55;99292.50;2102235;28;1796;-62
2023/12/21 01:57:53;;;;;;;;;;;;;;;19.64;46.70;99298.25;2099584;28;1840;-62
2023/12/21 01:58:55;;;;;;;;;;;;;;;19.64;46.77;99298.25;2098733;28;2255;-62
2023/12/21 01:59:56;;;;;;;;;;;;;;;19.63;46.70;99299.66;2100137;28;2057;-62
2023/12/21 02:00:57;;;;;;;;;;;;;;;19.63;46.68;99291.06;2099864;28;6252;-62
2023/12/21 02:01:59;;;;;;;;;;;;;;;19.63;46.71;99299.66;2097961;28;2233;-62
2023/12/21 02:03:01;;;;;;;;;;;;;;;19.63;46.69;99288.19;2098735;28;1664;-62
2023/12/21 02:04:02;;;;;;;;;;;;;;;19.63;46.72;99276.69;2100237;28;1946;-62
2023/12/21 02:05:04;;;;;;;;;;;;;;;19.62;46.80;99275.22;2101763;28;1507;-62
2023/12/21 02:06:05;;;;;;;;;;;;;;;19.62;46.81;99269.47;2101035;28;1525;-62
2023/12/21 02:07:07;;;;;;;;;;;;;;;19.62;46.66;99269.47;2102857;28;1514;-62
2023/12/21 02:08:08;;;;;;;;;;;;;;;19.62;46.77;99263.75;2101719;28;1952;-62
2023/12/21 02:09:12;;;;;;;;;;;;;;;19.61;46.79;99253.69;2100303;28;2020;-62
2023/12/21 02:10:14;;;;;;;;;;;;;;;19.62;46.83;99257.28;2100161;28;1982;-62
2023/12/21 02:11:15;;;;;;;;;;;;;;;19.62;46.81;99252.25;2102524;28;1554;-62
2023/12/21 02:12:17;;;;;;;;;;;;;;;19.61;46.58;99256.56;2101339;28;2074;-62
2023/12/21 02:13:18;;;;;;;;;;;;;;;19.62;46.76;99258.00;2100035;28;1906;-62
2023/12/21 02:14:19;;;;;;;;;;;;;;;19.62;46.63;99251.53;2099889;28;1930;-62
2023/12/21 02:15:21;;;;;;;;;;;;;;;19.62;46.68;99251.53;2103728;28;1979;-62
2023/12/21 02:16:23;;;;;;;;;;;;;;;19.62;46.68;99251.53;2101707;28;1781;-62
2023/12/21 02:17:25;;;;;;;;;;;;;;;19.62;46.67;99240.03;2097794;28;1816;-62
2023/12/21 02:18:26;;;;;;;;;;;;;;;19.62;46.51;99240.78;2099881;28;1698;-62
2023/12/21 02:19:28;;;;;;;;;;;;;;;19.62;46.61;99240.03;2098611;28;2108;-62
2023/12/21 02:20:29;;;;;;;;;;;;;;;19.61;46.56;99238.59;2099699;28;1968;-62
2023/12/21 02:21:31;;;;;;;;;;;;;;;19.61;46.58;99242.19;2100575;28;1998;-62
2023/12/21 02:22:33;;;;;;;;;;;;;;;19.61;46.55;99242.19;2090006;28;2074;-62
2023/12/21 02:23:36;;;;;;;;;;;;;;;19.59;46.57;99233.53;2094705;28;1861;-62
2023/12/21 02:24:37;;;;;;;;;;;;;;;19.59;46.55;99233.53;2100242;28;1627;-62
2023/12/21 02:25:38;;;;;;;;;;;;;;;19.60;46.63;99255.06;2101045;28;1695;-62
2023/12/21 02:26:40;;;;;;;;;;;;;;;19.60;46.56;99237.84;2098300;28;1682;-63
2023/12/21 02:27:42;;;;;;;;;;;;;;;19.59;46.48;99236.41;2089022;28;2082;-62
2023/12/21 02:28:43;;;;;;;;;;;;;;;19.58;46.59;99237.78;2098568;28;1536;-62
2023/12/21 02:29:44;;;;;;;;;;;;;;;19.59;46.52;99221.31;2097876;28;2021;-62
2023/12/21 02:30:48;;;;;;;;;;;;;;;19.59;46.49;99230.66;2095220;28;6130;-62
2023/12/21 02:31:50;;;;;;;;;;;;;;;19.59;46.45;99230.66;2097847;28;1983;-63
2023/12/21 02:32:51;;;;;;;;;;;;;;;19.59;46.51;99227.06;2097890;28;1875;-62
2023/12/21 02:33:53;;;;;;;;;;;;;;;19.59;46.50;99227.06;2098552;28;1541;-62
2023/12/21 02:34:54;;;;;;;;;;;;;;;19.58;46.50;99234.94;2100242;28;1832;-62
2023/12/21 02:35:56;;;;;;;;;;;;;;;19.58;46.59;99225.59;2101854;28;1961;-62
2023/12/21 02:36:58;;;;;;;;;;;;;;;19.58;46.56;99228.47;2099608;28;1973;-62
2023/12/21 02:37:59;;;;;;;;;;;;;;;19.58;46.52;99223.44;2101404;28;2216;-63
2023/12/21 02:39:00;;;;;;;;;;;;;;;19.58;46.47;99223.44;2096744;28;2077;-62
2023/12/21 02:40:02;;;;;;;;;;;;;;;19.58;46.52;99223.44;2100546;28;1827;-62
2023/12/21 02:41:03;;;;;;;;;;;;;;;19.58;46.45;99214.81;2099660;28;1934;-62
2023/12/21 02:42:05;;;;;;;;;;;;;;;19.58;46.41;99229.19;2101025;28;1970;-63
2023/12/21 02:43:06;;;;;;;;;;;;;;;19.58;46.45;99226.31;2097360;28;1825;-62
2023/12/21 02:44:08;;;;;;;;;;;;;;;19.58;46.53;99211.22;2100934;28;1848;-62
2023/12/21 02:45:09;;;;;;;;;;;;;;;19.56;46.58;99214.81;2097263;28;1958;-62
2023/12/21 02:46:11;;;;;;;;;;;;;;;19.55;46.59;99213.34;2099057;28;1938;-62
2023/12/21 02:47:12;;;;;;;;;;;;;;;19.55;46.65;99212.59;2097432;28;1962;-62
2023/12/21 02:48:14;;;;;;;;;;;;;;;19.54;46.64;99222.63;2101927;28;1562;-62
2023/12/21 02:49:15;;;;;;;;;;;;;;;19.56;46.63;99225.53;2097983;28;1554;-62
2023/12/21 02:50:17;;;;;;;;;;;;;;;19.55;46.51;99216.19;2101896;28;1546;-62
2023/12/21 02:51:19;;;;;;;;;;;;;;;19.54;46.49;99217.63;2097164;28;1977;-62
2023/12/21 02:52:20;;;;;;;;;;;;;;;19.53;46.49;99210.41;2099947;28;1885;-62
2023/12/21 02:53:22;;;;;;;;;;;;;;;19.54;46.63;99211.88;2099012;28;2170;-62
2023/12/21 02:54:23;;;;;;;;;;;;;;;19.56;46.58;99214.06;2098981;28;1641;-62
2023/12/21 02:55:24;;;;;;;;;;;;;;;19.55;46.46;99218.34;2097793;28;1777;-62
2023/12/21 02:56:26;;;;;;;;;;;;;;;19.55;46.64;99212.59;2101767;28;1644;-63
2023/12/21 02:57:27;;;;;;;;;;;;;;;19.54;46.47;99214.75;2100779;28;1477;-62
2023/12/21 02:58:29;;;;;;;;;;;;;;;19.55;46.65;99196.09;2102205;28;1566;-63
2023/12/21 02:59:30;;;;;;;;;;;;;;;19.54;46.67;99188.91;2098023;28;1797;-63
2023/12/21 03:00:31;;;;;;;;;;;;;;;19.55;46.58;99196.09;2098522;28;6500;-62
2023/12/21 03:01:33;;;;;;;;;;;;;;;19.54;46.57;99203.28;2100506;28;1969;-63
2023/12/21 03:02:34;;;;;;;;;;;;;;;19.54;46.59;99188.91;2099253;28;1998;-62
2023/12/21 03:03:36;;;;;;;;;;;;;;;19.54;46.61;99194.66;2099214;28;2027;-63
2023/12/21 03:04:37;;;;;;;;;;;;;;;19.52;46.67;99182.41;2100808;28;1415;-62
2023/12/21 03:05:39;;;;;;;;;;;;;;;19.51;46.59;99184.53;2098737;28;1895;-62
2023/12/21 03:06:40;;;;;;;;;;;;;;;19.52;46.68;99191.75;2097973;28;1581;-62
2023/12/21 03:07:42;;;;;;;;;;;;;;;19.51;46.66;99184.53;2101094;28;2037;-63
2023/12/21 03:08:43;;;;;;;;;;;;;;;19.52;46.64;99186.00;2099109;28;1818;-62
2023/12/21 03:09:45;;;;;;;;;;;;;;;19.52;46.68;99191.75;2099006;28;1895;-63
2023/12/21 03:10:48;;;;;;;;;;;;;;;19.52;46.62;99185.28;2101229;28;1999;-63
2023/12/21 03:11:49;;;;;;;;;;;;;;;19.52;46.62;99177.38;2098526;28;2065;-62
2023/12/21 03:12:51;;;;;;;;;;;;;;;19.52;46.60;99188.16;2100306;28;1993;-62
2023/12/21 03:13:52;;;;;;;;;;;;;;;19.52;46.61;99180.25;2098000;28;2100;-62
2023/12/21 03:14:53;;;;;;;;;;;;;;;19.51;46.64;99173.03;2103003;28;1519;-62
2023/12/21 03:15:55;;;;;;;;;;;;;;;19.51;46.69;99178.78;2101975;28;1964;-62
2023/12/21 03:16:56;;;;;;;;;;;;;;;19.51;46.57;99173.03;2100354;28;1566;-63
2023/12/21 03:17:58;;;;;;;;;;;;;;;19.50;46.57;99174.47;2097638;28;2071;-62
2023/12/21 03:18:59;;;;;;;;;;;;;;;19.51;46.61;99178.06;2099287;28;1563;-62
2023/12/21 03:20:03;;;;;;;;;;;;;;;19.51;46.61;99178.06;2100844;28;1587;-62
2023/12/21 03:21:04;;;;;;;;;;;;;;;19.50;46.77;99171.59;2100269;28;1965;-62
2023/12/21 03:22:06;;;;;;;;;;;;;;;19.50;46.67;99173.75;2099737;28;1950;-63
2023/12/21 03:23:07;;;;;;;;;;;;;;;19.50;46.79;99174.47;2099598;28;1954;-62
2023/12/21 03:24:09;;;;;;;;;;;;;;;19.51;46.76;99167.31;2099940;28;2041;-62
2023/12/21 03:25:10;;;;;;;;;;;;;;;19.50;46.72;99171.59;2100096;28;1969;-62
2023/12/21 03:26:12;;;;;;;;;;;;;;;19.49;46.67;99175.84;2100891;28;1742;-62
2023/12/21 03:27:15;;;;;;;;;;;;;;;19.49;46.67;99164.38;2102196;28;1569;-62
2023/12/21 03:28:16;;;;;;;;;;;;;;;19.50;46.55;99171.59;2099139;28;1630;-62
2023/12/21 03:29:18;;;;;;;;;;;;;;;19.49;46.67;99155.78;2100850;28;1601;-62
2023/12/21 03:30:19;;;;;;;;;;;;;;;19.48;46.59;99162.94;2096401;28;6084;-62
2023/12/21 03:31:21;;;;;;;;;;;;;;;19.49;46.68;99169.41;2097270;28;2021;-62
2023/12/21 03:32:22;;;;;;;;;;;;;;;19.48;46.73;99156.47;2104291;28;1973;-62
2023/12/21 03:33:23;;;;;;;;;;;;;;;19.49;46.61;99158.63;2104808;28;1634;-62
2023/12/21 03:34:25;;;;;;;;;;;;;;;19.48;46.68;99148.56;2098587;28;1548;-62
2023/12/21 03:35:26;;;;;;;;;;;;;;;19.49;46.64;99147.16;2100470;28;1990;-62
2023/12/21 03:36:28;;;;;;;;;;;;;;;19.48;46.63;99147.84;2098260;28;1917;-62
2023/12/21 03:37:29;;;;;;;;;;;;;;;19.49;46.60;99147.16;2099871;28;1815;-62
2023/12/21 03:38:31;;;;;;;;;;;;;;;19.49;46.50;99152.19;2095793;28;1938;-62
2023/12/21 03:39:33;;;;;;;;;;;;;;;19.50;46.62;99160.13;2098169;28;2108;-62
2023/12/21 03:40:34;;;;;;;;;;;;;;;19.50;46.55;99153.66;2096633;28;1597;-62
2023/12/21 03:41:35;;;;;;;;;;;;;;;19.50;46.52;99154.38;2098704;28;1978;-62
2023/12/21 03:42:37;;;;;;;;;;;;;;;19.50;46.67;99151.50;2101262;28;1727;-63
2023/12/21 03:43:38;;;;;;;;;;;;;;;19.51;46.67;99152.22;2102500;28;1768;-62
2023/12/21 03:44:40;;;;;;;;;;;;;;;19.52;46.70;99156.56;2102016;28;1545;-62
2023/12/21 03:45:41;;;;;;;;;;;;;;;19.53;46.74;99144.38;2097590;28;1946;-62
2023/12/21 03:46:42;;;;;;;;;;;;;;;19.53;46.75;99147.25;2098657;28;1809;-62
2023/12/21 03:47:44;;;;;;;;;;;;;;;19.54;46.73;99142.97;2099429;28;1923;-62
2023/12/21 03:48:45;;;;;;;;;;;;;;;19.54;46.68;99142.97;2101792;28;1538;-62
2023/12/21 03:49:47;;;;;;;;;;;;;;;19.56;46.59;99134.41;2099708;28;1864;-62
2023/12/21 03:50:48;;;;;;;;;;;;;;;19.57;46.63;99143.75;2099355;28;1947;-62
2023/12/21 03:51:50;;;;;;;;;;;;;;;19.57;46.67;99135.88;2100117;28;1937;-62
2023/12/21 03:52:52;;;;;;;;;;;;;;;19.58;46.67;99136.59;2102560;28;1495;-62
2023/12/21 03:53:53;;;;;;;;;;;;;;;19.58;46.66;99137.31;2102160;28;1670;-62
2023/12/21 03:54:55;;;;;;;;;;;;;;;19.60;46.64;99133.78;2096287;28;2005;-62
2023/12/21 03:55:56;;;;;;;;;;;;;;;19.60;46.57;99128.75;2097464;28;2018;-62
2023/12/21 03:56:58;;;;;;;;;;;;;;;19.60;46.51;99134.50;2099952;28;1910;-62
2023/12/21 03:58:00;;;;;;;;;;;;;;;19.61;46.54;99133.09;2098574;28;1945;-62
2023/12/21 03:59:01;;;;;;;;;;;;;;;19.61;46.62;99132.38;2100847;28;1637;-62
2023/12/21 04:00:03;;;;;;;;;;;;;;;19.61;46.76;99130.22;2101843;28;1974;-62
2023/12/21 04:01:04;;;;;;;;;;;;;;;19.62;46.67;99122.34;2097805;28;5979;-62
2023/12/21 04:02:06;;;;;;;;;;;;;;;19.62;46.59;99128.78;2099129;28;2129;-62
2023/12/21 04:03:07;;;;;;;;;;;;;;;19.61;46.51;99118.72;2097027;28;1931;-62
2023/12/21 04:04:09;;;;;;;;;;;;;;;19.61;46.76;99113.00;2098774;28;2220;-62
2023/12/21 04:05:10;;;;;;;;;;;;;;;19.61;46.67;99121.59;2098552;28;2151;-62
2023/12/21 04:06:12;;;;;;;;;;;;;;;19.60;46.79;99116.53;2101013;28;1829;-62
2023/12/21 04:07:13;;;;;;;;;;;;;;;19.60;46.73;99117.25;2099232;28;1688;-62
2023/12/21 04:08:15;;;;;;;;;;;;;;;19.60;46.88;99111.53;2097991;28;1931;-62
2023/12/21 04:09:16;;;;;;;;;;;;;;;19.61;46.69;99113.00;2100739;28;1582;-62
2023/12/21 04:10:18;;;;;;;;;;;;;;;19.60;46.88;99105.78;2097946;28;2134;-62
2023/12/21 04:11:19;;;;;;;;;;;;;;;19.60;46.90;99117.25;2095117;28;1903;-62
2023/12/21 04:12:21;;;;;;;;;;;;;;;19.60;46.90;99108.66;2101612;28;1927;-62
2023/12/21 04:13:22;;;;;;;;;;;;;;;19.60;46.96;99099.31;2099190;28;1609;-62
2023/12/21 04:14:24;;;;;;;;;;;;;;;19.60;46.87;99105.78;2100663;28;2061;-62
2023/12/21 04:15:25;;;;;;;;;;;;;;;19.60;46.92;99105.78;2099915;28;2245;-62
2023/12/21 04:16:27;;;;;;;;;;;;;;;19.61;46.86;99098.63;2101857;28;1977;-62
2023/12/21 04:17:28;;;;;;;;;;;;;;;19.62;46.82;99105.09;2100894;28;1697;-62
2023/12/21 04:18:30;;;;;;;;;;;;;;;19.62;46.95;99102.97;2099699;28;1986;-62
2023/12/21 04:19:32;;;;;;;;;;;;;;;19.62;46.83;99108.69;2097475;28;1946;-63
2023/12/21 04:20:33;;;;;;;;;;;;;;;19.63;47.03;99092.94;2098141;28;2095;-62
2023/12/21 04:21:34;;;;;;;;;;;;;;;19.63;46.89;99107.28;2096655;28;2232;-62
2023/12/21 04:22:36;;;;;;;;;;;;;;;19.64;46.94;99103.00;2097526;28;2186;-62
2023/12/21 04:23:37;;;;;;;;;;;;;;;19.64;46.83;99102.28;2099353;28;1863;-62
2023/12/21 04:24:40;;;;;;;;;;;;;;;19.64;46.90;99108.03;2097426;28;1911;-62
2023/12/21 04:25:41;;;;;;;;;;;;;;;19.65;46.78;99104.47;2098507;28;1969;-62
2023/12/21 04:26:43;;;;;;;;;;;;;;;19.66;46.89;99108.78;2101980;28;1959;-62
2023/12/21 04:27:44;;;;;;;;;;;;;;;19.66;46.91;99113.81;2100606;28;1958;-62
2023/12/21 04:28:46;;;;;;;;;;;;;;;19.65;46.96;99110.22;2100013;28;1554;-62
2023/12/21 04:29:47;;;;;;;;;;;;;;;19.66;46.97;99102.31;2098954;28;1805;-62
2023/12/21 04:30:49;;;;;;;;;;;;;;;19.67;46.99;99109.50;2101358;28;6100;-62
2023/12/21 04:31:50;;;;;;;;;;;;;;;19.66;46.97;99103.03;2103145;28;1626;-62
2023/12/21 04:32:52;;;;;;;;;;;;;;;19.66;46.96;99097.31;2100219;28;1617;-62
2023/12/21 04:33:53;;;;;;;;;;;;;;;19.66;46.93;99102.31;2100740;28;1843;-62
2023/12/21 04:34:55;;;;;;;;;;;;;;;19.66;47.11;99111.66;2099649;28;1965;-62
2023/12/21 04:35:56;;;;;;;;;;;;;;;19.66;46.86;99108.06;2100163;28;1990;-62
2023/12/21 04:36:58;;;;;;;;;;;;;;;19.67;46.93;99100.91;2100118;28;1983;-62
2023/12/21 04:37:59;;;;;;;;;;;;;;;19.66;46.96;99103.03;2101930;28;1693;-62
2023/12/21 04:39:01;;;;;;;;;;;;;;;19.66;47.11;99097.31;2102908;28;1780;-63
2023/12/21 04:40:03;;;;;;;;;;;;;;;19.65;47.06;99087.25;2100965;28;1902;-62
2023/12/21 04:41:04;;;;;;;;;;;;;;;19.64;47.07;99094.38;2101781;28;1653;-62
2023/12/21 04:42:06;;;;;;;;;;;;;;;19.65;47.09;99095.84;2100509;28;1981;-62
2023/12/21 04:43:11;;;;;;;;;;;;;;;19.64;47.13;99091.50;2100309;28;1581;-62
2023/12/21 04:44:13;;;;;;;;;;;;;;;19.64;47.13;99085.78;2100039;28;1653;-62
2023/12/21 04:45:14;;;;;;;;;;;;;;;19.66;47.14;99091.56;2098439;28;1820;-62
2023/12/21 04:46:16;;;;;;;;;;;;;;;19.66;47.02;99094.44;2100902;28;2232;-62
2023/12/21 04:47:18;;;;;;;;;;;;;;;19.66;46.98;99090.84;2103212;28;2037;-62
2023/12/21 04:48:24;;;;;;;;;;;;;;;19.65;47.09;99095.84;2101716;28;1589;-62
2023/12/21 04:49:27;;;;;;;;;;;;;;;19.65;47.06;99095.84;2099148;28;1551;-62
2023/12/21 04:50:28;;;;;;;;;;;;;;;19.64;46.97;99094.38;2100407;28;1938;-62
2023/12/21 04:51:30;;;;;;;;;;;;;;;19.65;47.12;99090.13;2101105;28;1664;-62
2023/12/21 04:52:31;;;;;;;;;;;;;;;19.65;47.09;99089.38;2102254;28;1540;-62
2023/12/21 04:53:33;;;;;;;;;;;;;;;19.66;47.14;99090.84;2104789;28;1570;-62
2023/12/21 04:54:34;;;;;;;;;;;;;;;19.65;47.17;99084.38;2102735;28;2045;-62
2023/12/21 04:55:36;;;;;;;;;;;;;;;19.66;47.13;99091.56;2103389;28;1709;-62
2023/12/21 04:56:41;;;;;;;;;;;;;;;19.67;46.96;99081.53;2100015;28;2054;-62
2023/12/21 04:57:42;;;;;;;;;;;;;;;19.68;47.10;99085.13;2099153;28;2011;-62
2023/12/21 04:58:44;;;;;;;;;;;;;;;19.69;47.07;99091.63;2098192;28;1473;-62
2023/12/21 04:59:45;;;;;;;;;;;;;;;19.67;47.25;99081.53;2104165;28;1676;-62
2023/12/21 05:00:50;;;;;;;;;;;;;;;19.71;47.12;99083.06;2100210;28;6004;-62
2023/12/21 05:01:53;;;;;;;;;;;;;;;19.69;47.16;99083.03;2101860;28;1813;-62
2023/12/21 05:02:54;;;;;;;;;;;;;;;19.71;47.03;99091.69;2101062;28;2033;-62
2023/12/21 05:03:56;;;;;;;;;;;;;;;19.72;47.05;99076.63;2101072;28;1812;-62
2023/12/21 05:04:58;;;;;;;;;;;;;;;19.73;46.99;99085.97;2099977;28;1926;-62
2023/12/21 05:05:59;;;;;;;;;;;;;;;19.73;47.01;99083.09;2100702;28;1975;-62
2023/12/21 05:07:01;;;;;;;;;;;;;;;19.73;47.18;99085.97;2102012;28;1919;-62
2023/12/21 05:08:03;;;;;;;;;;;;;;;19.73;47.07;99089.56;2102391;28;1506;-62
2023/12/21 05:09:05;;;;;;;;;;;;;;;19.73;47.01;99083.09;2100773;28;1589;-62
2023/12/21 05:10:07;;;;;;;;;;;;;;;19.73;46.99;99077.38;2102688;28;1990;-62
2023/12/21 05:11:08;;;;;;;;;;;;;;;19.73;47.25;99088.84;2102457;28;1883;-63
2023/12/21 05:12:10;;;;;;;;;;;;;;;19.73;47.08;99071.63;2102853;28;1534;-62
2023/12/21 05:13:11;;;;;;;;;;;;;;;19.73;47.12;99078.09;2101367;28;1799;-62
2023/12/21 05:14:13;;;;;;;;;;;;;;;19.72;47.17;99070.16;2101940;28;2142;-62
2023/12/21 05:15:14;;;;;;;;;;;;;;;19.73;47.04;99077.38;2100186;28;2003;-62
2023/12/21 05:16:15;;;;;;;;;;;;;;;19.72;47.19;99070.16;2100638;28;2020;-62
2023/12/21 05:17:17;;;;;;;;;;;;;;;19.72;47.12;99075.91;2099851;28;2308;-62
2023/12/21 05:18:19;;;;;;;;;;;;;;;19.70;47.17;99070.84;2103444;28;1617;-62
2023/12/21 05:19:20;;;;;;;;;;;;;;;19.72;47.13;99061.53;2101952;28;1546;-62
2023/12/21 05:20:22;;;;;;;;;;;;;;;19.73;47.26;99068.75;2101898;28;1961;-62
2023/12/21 05:21:23;;;;;;;;;;;;;;;19.70;47.29;99061.50;2100256;28;2029;-62
2023/12/21 05:22:25;;;;;;;;;;;;;;;19.71;47.29;99057.22;2097762;28;1957;-62
2023/12/21 05:23:26;;;;;;;;;;;;;;;19.70;47.28;99055.75;2102562;28;1851;-62
2023/12/21 05:24:28;;;;;;;;;;;;;;;19.70;47.22;99055.75;2101420;28;1559;-62
2023/12/21 05:25:29;;;;;;;;;;;;;;;19.70;47.23;99056.50;2097240;28;1887;-62